createdAt,value
2022-09-05T00:00:17.173Z,999.28
2022-09-05T00:01:17.150Z,999.30
2022-09-05T00:02:17.165Z,999.25
2022-09-05T00:03:17.267Z,999.24
2022-09-05T00:04:24.731Z,999.26
2022-09-05T00:05:17.069Z,999.25
2022-09-05T00:06:17.082Z,999.25
2022-09-05T00:07:57.778Z,999.24
2022-09-05T00:08:17.004Z,999.24
2022-09-05T00:09:16.984Z,999.25
2022-09-05T00:10:16.964Z,999.26
2022-09-05T00:11:39.489Z,999.22
2022-09-05T00:12:16.920Z,999.19
2022-09-05T00:13:16.896Z,999.22
2022-09-05T00:14:16.881Z,999.20
2022-09-05T00:15:18.888Z,999.21
2022-09-05T00:16:16.927Z,999.15
2022-09-05T00:17:16.812Z,999.18
2022-09-05T00:21:36.786Z,999.20
2022-09-05T00:24:17.297Z,999.21
2022-09-05T00:24:22.001Z,999.24
2022-09-05T00:24:25.768Z,999.21
2022-09-05T00:24:30.903Z,999.21
2022-09-05T00:24:31.149Z,999.22
2022-09-05T00:24:32.754Z,999.22
2022-09-05T00:25:33.061Z,999.24
2022-09-05T00:26:16.659Z,999.17
2022-09-05T00:27:16.619Z,999.20
2022-09-05T00:28:25.658Z,999.17
2022-09-05T00:29:16.574Z,999.16
2022-09-05T00:31:08.561Z,999.18
2022-09-05T00:31:55.520Z,999.13
2022-09-05T00:32:16.522Z,999.13
2022-09-05T00:33:26.678Z,999.09
2022-09-05T00:34:16.461Z,999.09
2022-09-05T00:35:16.458Z,999.11
2022-09-05T00:36:16.414Z,999.02
2022-09-05T00:37:16.485Z,999.06
2022-09-05T00:38:16.395Z,999.04
2022-09-05T00:39:16.368Z,999.04
2022-09-05T00:40:18.687Z,999.02
2022-09-05T00:41:16.329Z,999.04
2022-09-05T00:42:16.301Z,998.98
2022-09-05T00:43:16.272Z,999.03
2022-09-05T00:44:16.249Z,999.04
2022-09-05T00:45:19.897Z,999.03
2022-09-05T00:46:16.276Z,999.05
2022-09-05T00:47:16.185Z,999.07
2022-09-05T00:48:16.175Z,999.06
2022-09-05T00:49:16.145Z,999.07
2022-09-05T00:50:16.163Z,999.07
2022-09-05T00:51:16.105Z,999.08
2022-09-05T00:52:16.110Z,999.11
2022-09-05T00:53:16.062Z,999.10
2022-09-05T00:54:16.039Z,999.10
2022-09-05T00:55:16.024Z,999.12
2022-09-05T00:56:15.998Z,999.14
2022-09-05T00:57:16.312Z,999.14
2022-09-05T00:58:15.962Z,999.10
2022-09-05T00:59:15.941Z,999.13
2022-09-05T01:00:17.808Z,999.12
2022-09-05T01:01:21.457Z,999.10
2022-09-05T01:02:15.977Z,999.12
2022-09-05T01:03:15.954Z,999.12
2022-09-05T01:04:15.839Z,999.09
2022-09-05T01:05:15.812Z,999.09
2022-09-05T01:06:15.790Z,999.10
2022-09-05T01:07:15.769Z,999.11
2022-09-05T01:08:15.749Z,999.07
2022-09-05T01:09:15.728Z,999.07
2022-09-05T01:10:15.709Z,999.04
2022-09-05T01:11:15.692Z,999.05
2022-09-05T01:12:15.673Z,998.98
2022-09-05T01:13:15.645Z,998.98
2022-09-05T01:14:15.620Z,998.98
2022-09-05T01:15:15.603Z,998.97
2022-09-05T01:16:15.628Z,998.99
2022-09-05T01:17:15.559Z,998.96
2022-09-05T01:18:15.556Z,998.98
2022-09-05T01:19:16.041Z,998.95
2022-09-05T01:20:19.188Z,998.92
2022-09-05T01:21:15.473Z,998.94
2022-09-05T01:22:15.457Z,998.90
2022-09-05T01:23:15.450Z,998.90
2022-09-05T01:24:15.413Z,998.91
2022-09-05T01:25:15.414Z,998.88
2022-09-05T01:26:15.373Z,998.87
2022-09-05T01:27:15.350Z,998.84
2022-09-05T01:29:15.939Z,998.81
2022-09-05T01:29:19.354Z,998.85
2022-09-05T01:30:15.325Z,998.78
2022-09-05T01:31:15.309Z,998.76
2022-09-05T01:32:15.256Z,998.81
2022-09-05T01:33:15.222Z,998.80
2022-09-05T01:34:15.201Z,998.75
2022-09-05T01:35:15.189Z,998.79
2022-09-05T01:36:15.180Z,998.74
2022-09-05T01:37:24.821Z,998.74
2022-09-05T01:38:15.116Z,998.78
2022-09-05T01:40:14.351Z,998.77
2022-09-05T01:40:16.871Z,998.78
2022-09-05T01:41:18.434Z,998.79
2022-09-05T01:42:15.038Z,998.78
2022-09-05T01:43:15.064Z,998.76
2022-09-05T01:44:14.991Z,998.79
2022-09-05T01:45:14.968Z,998.74
2022-09-05T01:46:15.005Z,998.75
2022-09-05T01:47:14.972Z,998.75
2022-09-05T01:48:14.905Z,998.75
2022-09-05T01:49:14.885Z,998.74
2022-09-05T01:50:14.864Z,998.77
2022-09-05T01:51:28.689Z,998.73
2022-09-05T01:52:14.819Z,998.77
2022-09-05T01:53:14.803Z,998.72
2022-09-05T01:54:24.949Z,998.79
2022-09-05T01:55:14.760Z,998.81
2022-09-05T01:56:14.740Z,998.79
2022-09-05T01:57:14.719Z,998.81
2022-09-05T01:58:14.696Z,998.79
2022-09-05T01:59:14.685Z,998.78
2022-09-05T02:00:14.650Z,998.79
2022-09-05T02:01:25.356Z,998.77
2022-09-05T02:02:14.712Z,998.78
2022-09-05T02:03:14.612Z,998.79
2022-09-05T02:04:14.564Z,998.79
2022-09-05T02:05:14.564Z,998.82
2022-09-05T02:06:14.538Z,998.79
2022-09-05T02:07:20.043Z,998.80
2022-09-05T02:08:14.535Z,998.73
2022-09-05T02:09:14.471Z,998.71
2022-09-05T02:10:14.442Z,998.74
2022-09-05T02:11:14.421Z,998.71
2022-09-05T02:12:14.397Z,998.76
2022-09-05T02:13:14.377Z,998.79
2022-09-05T02:14:14.354Z,998.78
2022-09-05T02:15:14.328Z,998.76
2022-09-05T02:16:14.341Z,998.76
2022-09-05T02:17:23.621Z,998.73
2022-09-05T02:18:14.297Z,998.72
2022-09-05T02:19:14.244Z,998.68
2022-09-05T02:20:14.243Z,998.68
2022-09-05T02:21:14.211Z,998.67
2022-09-05T02:22:14.180Z,998.64
2022-09-05T02:23:40.545Z,998.62
2022-09-05T02:24:14.391Z,998.65
2022-09-05T02:25:30.561Z,998.62
2022-09-05T02:26:14.105Z,998.60
2022-09-05T02:28:03.320Z,998.56
2022-09-05T02:28:14.049Z,998.56
2022-09-05T02:29:28.928Z,998.55
2022-09-05T02:30:14.013Z,998.57
2022-09-05T02:31:19.808Z,998.55
2022-09-05T02:32:13.967Z,998.55
2022-09-05T02:33:13.950Z,998.56
2022-09-05T02:34:13.934Z,998.56
2022-09-05T02:35:14.012Z,998.51
2022-09-05T02:36:13.886Z,998.51
2022-09-05T02:37:13.862Z,998.51
2022-09-05T02:40:59.868Z,998.52
2022-09-05T02:45:01.968Z,998.49
2022-09-05T02:45:03.295Z,998.52
2022-09-05T02:45:08.518Z,998.54
2022-09-05T02:45:10.275Z,998.53
2022-09-05T02:45:10.983Z,998.49
2022-09-05T02:45:13.246Z,998.50
2022-09-05T02:45:25.453Z,998.53
2022-09-05T02:46:13.764Z,998.58
2022-09-05T02:47:13.648Z,998.57
2022-09-05T02:48:15.360Z,998.57
2022-09-05T02:49:26.176Z,998.55
2022-09-05T02:54:00.485Z,998.50
2022-09-05T02:56:38.918Z,998.53
2022-09-05T02:57:29.106Z,998.53
2022-09-05T02:57:35.418Z,998.52
2022-09-05T02:57:36.699Z,998.55
2022-09-05T02:57:36.857Z,998.53
2022-09-05T02:57:38.985Z,998.51
2022-09-05T02:57:43.274Z,998.52
2022-09-05T02:58:13.557Z,998.51
2022-09-05T02:59:13.417Z,998.51
2022-09-05T03:00:13.385Z,998.48
2022-09-05T03:01:13.394Z,998.55
2022-09-05T03:02:25.621Z,998.46
2022-09-05T03:03:13.349Z,998.50
2022-09-05T03:04:13.286Z,998.45
2022-09-05T03:05:13.266Z,998.46
2022-09-05T03:06:13.249Z,998.45
2022-09-05T03:07:13.226Z,998.45
2022-09-05T03:08:13.194Z,998.45
2022-09-05T03:09:17.446Z,998.44
2022-09-05T03:10:13.151Z,998.46
2022-09-05T03:11:13.158Z,998.46
2022-09-05T03:12:29.164Z,998.50
2022-09-05T03:13:13.090Z,998.46
2022-09-05T03:14:13.072Z,998.46
2022-09-05T03:15:18.619Z,998.46
2022-09-05T03:16:13.101Z,998.47
2022-09-05T03:17:12.999Z,998.48
2022-09-05T03:18:31.450Z,998.48
2022-09-05T03:19:12.958Z,998.47
2022-09-05T03:20:12.945Z,998.49
2022-09-05T03:21:12.918Z,998.48
2022-09-05T03:22:12.895Z,998.51
2022-09-05T03:23:12.873Z,998.51
2022-09-05T03:24:12.848Z,998.50
2022-09-05T03:25:12.851Z,998.55
2022-09-05T03:26:12.806Z,998.53
2022-09-05T03:27:12.786Z,998.49
2022-09-05T03:28:12.763Z,998.51
2022-09-05T03:29:12.746Z,998.48
2022-09-05T03:30:12.727Z,998.47
2022-09-05T03:31:22.282Z,998.48
2022-09-05T03:32:12.678Z,998.49
2022-09-05T03:33:12.651Z,998.49
2022-09-05T03:34:12.640Z,998.51
2022-09-05T03:35:12.626Z,998.50
2022-09-05T03:36:12.594Z,998.46
2022-09-05T03:37:12.570Z,998.47
2022-09-05T03:38:12.553Z,998.47
2022-09-05T03:39:12.523Z,998.46
2022-09-05T03:40:16.142Z,998.48
2022-09-05T03:41:12.492Z,998.45
2022-09-05T03:42:14.663Z,998.46
2022-09-05T03:43:12.443Z,998.47
2022-09-05T03:44:12.415Z,998.51
2022-09-05T03:45:12.414Z,998.50
2022-09-05T03:46:12.411Z,998.50
2022-09-05T03:47:12.353Z,998.52
2022-09-05T03:48:28.069Z,998.54
2022-09-05T03:50:09.502Z,998.51
2022-09-05T03:54:17.125Z,998.50
2022-09-05T03:57:05.935Z,998.49
2022-09-05T03:57:07.264Z,998.49
2022-09-05T03:57:10.415Z,998.51
2022-09-05T03:57:12.691Z,998.51
2022-09-05T03:57:18.468Z,998.50
2022-09-05T03:57:20.724Z,998.53
2022-09-05T03:57:33.834Z,998.54
2022-09-05T03:58:18.164Z,998.50
2022-09-05T03:59:12.089Z,998.52
2022-09-05T04:00:12.071Z,998.49
2022-09-05T04:02:40.390Z,998.49
2022-09-05T04:04:03.725Z,998.50
2022-09-05T04:06:44.184Z,998.50
2022-09-05T04:08:10.294Z,998.50
2022-09-05T04:08:14.409Z,998.48
2022-09-05T04:08:18.262Z,998.51
2022-09-05T04:08:18.372Z,998.52
2022-09-05T04:08:41.013Z,998.47
2022-09-05T04:09:12.039Z,998.50
2022-09-05T04:10:11.937Z,998.49
2022-09-05T04:11:11.830Z,998.45
2022-09-05T04:12:11.806Z,998.47
2022-09-05T04:13:11.790Z,998.44
2022-09-05T04:14:11.775Z,998.48
2022-09-05T04:15:11.742Z,998.47
2022-09-05T04:16:11.782Z,998.54
2022-09-05T04:17:11.700Z,998.52
2022-09-05T04:18:11.723Z,998.57
2022-09-05T04:19:11.654Z,998.52
2022-09-05T04:20:11.638Z,998.57
2022-09-05T04:21:11.624Z,998.59
2022-09-05T04:22:11.594Z,998.60
2022-09-05T04:23:11.574Z,998.64
2022-09-05T04:24:11.548Z,998.65
2022-09-05T04:25:11.542Z,998.66
2022-09-05T04:26:12.484Z,998.68
2022-09-05T04:27:11.487Z,998.68
2022-09-05T04:28:11.456Z,998.68
2022-09-05T04:29:11.445Z,998.69
2022-09-05T04:30:38.554Z,998.70
2022-09-05T04:31:11.395Z,998.70
2022-09-05T04:32:18.010Z,998.71
2022-09-05T04:33:11.353Z,998.72
2022-09-05T04:34:11.331Z,998.70
2022-09-05T04:35:11.313Z,998.74
2022-09-05T04:36:18.271Z,998.73
2022-09-05T04:37:11.298Z,998.70
2022-09-05T04:38:11.256Z,998.71
2022-09-05T04:39:11.227Z,998.74
2022-09-05T04:40:11.218Z,998.75
2022-09-05T04:41:11.183Z,998.73
2022-09-05T04:42:11.166Z,998.75
2022-09-05T04:43:11.139Z,998.76
2022-09-05T04:44:11.115Z,998.75
2022-09-05T04:45:11.112Z,998.73
2022-09-05T04:46:12.351Z,998.73
2022-09-05T04:47:11.678Z,998.73
2022-09-05T04:48:11.056Z,998.75
2022-09-05T04:49:11.011Z,998.76
2022-09-05T04:50:10.995Z,998.76
2022-09-05T04:51:12.937Z,998.75
2022-09-05T04:52:11.743Z,998.77
2022-09-05T04:53:10.927Z,998.80
2022-09-05T04:54:10.938Z,998.83
2022-09-05T04:55:10.910Z,998.82
2022-09-05T04:56:10.870Z,998.85
2022-09-05T04:57:14.308Z,998.86
2022-09-05T04:58:10.827Z,998.88
2022-09-05T05:01:40.737Z,998.88
2022-09-05T05:04:45.986Z,998.89
2022-09-05T05:06:01.348Z,998.88
2022-09-05T05:06:08.546Z,998.96
2022-09-05T05:06:13.895Z,999.00
2022-09-05T05:06:17.111Z,998.94
2022-09-05T05:06:18.515Z,998.95
2022-09-05T05:06:38.111Z,999.03
2022-09-05T05:07:10.705Z,999.02
2022-09-05T05:08:10.701Z,999.04
2022-09-05T05:09:10.660Z,999.03
2022-09-05T05:14:07.639Z,999.08
2022-09-05T05:16:13.515Z,999.08
2022-09-05T05:17:59.390Z,999.09
2022-09-05T05:18:00.195Z,999.05
2022-09-05T05:18:08.140Z,999.06
2022-09-05T05:18:08.469Z,999.07
2022-09-05T05:18:11.987Z,999.07
2022-09-05T05:18:13.402Z,999.06
2022-09-05T05:18:36.709Z,999.09
2022-09-05T05:19:18.647Z,999.09
2022-09-05T05:20:42.319Z,999.09
2022-09-05T05:21:10.457Z,999.09
2022-09-05T05:22:10.348Z,999.11
2022-09-05T05:23:10.296Z,999.08
2022-09-05T05:24:10.270Z,999.09
2022-09-05T05:25:10.304Z,999.09
2022-09-05T05:26:10.240Z,999.10
2022-09-05T05:27:10.215Z,999.11
2022-09-05T05:28:24.066Z,999.12
2022-09-05T05:29:10.165Z,999.10
2022-09-05T05:30:10.149Z,999.08
2022-09-05T05:31:10.196Z,999.06
2022-09-05T05:32:10.122Z,999.08
2022-09-05T05:33:10.100Z,999.08
2022-09-05T05:34:16.249Z,999.07
2022-09-05T05:35:10.035Z,999.06
2022-09-05T05:36:10.075Z,999.07
2022-09-05T05:37:10.093Z,999.07
2022-09-05T05:38:09.982Z,999.06
2022-09-05T05:39:09.958Z,999.04
2022-09-05T05:40:10.041Z,999.05
2022-09-05T05:41:09.963Z,999.05
2022-09-05T05:42:20.366Z,999.05
2022-09-05T05:43:09.898Z,999.05
2022-09-05T05:44:09.856Z,999.07
2022-09-05T05:45:09.833Z,999.07
2022-09-05T05:46:09.847Z,999.11
2022-09-05T05:47:09.785Z,999.14
2022-09-05T05:48:09.766Z,999.13
2022-09-05T05:49:09.757Z,999.13
2022-09-05T05:50:11.791Z,999.14
2022-09-05T05:51:09.705Z,999.14
2022-09-05T05:52:09.730Z,999.14
2022-09-05T05:53:09.659Z,999.17
2022-09-05T05:54:09.794Z,999.21
2022-09-05T05:55:34.005Z,999.16
2022-09-05T05:56:09.647Z,999.19
2022-09-05T05:57:10.096Z,999.22
2022-09-05T05:58:09.603Z,999.22
2022-09-05T05:59:09.683Z,999.25
2022-09-05T06:00:13.425Z,999.26
2022-09-05T06:01:27.381Z,999.27
2022-09-05T06:02:09.602Z,999.27
2022-09-05T06:03:26.002Z,999.30
2022-09-05T06:04:09.456Z,999.27
2022-09-05T06:05:09.473Z,999.33
2022-09-05T06:06:09.501Z,999.30
2022-09-05T06:07:10.106Z,999.33
2022-09-05T06:12:01.172Z,999.30
2022-09-05T06:12:46.329Z,999.29
2022-09-05T06:14:48.174Z,999.29
2022-09-05T06:14:58.871Z,999.29
2022-09-05T06:15:00.722Z,999.29
2022-09-05T06:15:01.180Z,999.29
2022-09-05T06:15:01.181Z,999.27
2022-09-05T06:15:12.103Z,999.31
2022-09-05T06:16:09.278Z,999.28
2022-09-05T06:17:09.172Z,999.29
2022-09-05T06:18:09.156Z,999.28
2022-09-05T06:19:09.132Z,999.28
2022-09-05T06:22:04.357Z,999.27
2022-09-05T06:22:08.299Z,999.26
2022-09-05T06:22:14.080Z,999.24
2022-09-05T06:23:27.530Z,999.29
2022-09-05T06:24:09.028Z,999.30
2022-09-05T06:25:16.962Z,999.28
2022-09-05T06:26:08.996Z,999.28
2022-09-05T06:27:08.966Z,999.28
2022-09-05T06:28:19.733Z,999.29
2022-09-05T06:29:08.931Z,999.26
2022-09-05T06:30:08.954Z,999.28
2022-09-05T06:31:29.332Z,999.24
2022-09-05T06:32:08.906Z,999.23
2022-09-05T06:33:08.857Z,999.23
2022-09-05T06:34:17.078Z,999.24
2022-09-05T06:35:08.812Z,999.20
2022-09-05T06:36:08.808Z,999.25
2022-09-05T06:37:08.816Z,999.27
2022-09-05T06:38:08.758Z,999.26
2022-09-05T06:39:08.743Z,999.25
2022-09-05T06:40:08.864Z,999.26
2022-09-05T06:41:08.697Z,999.25
2022-09-05T06:42:08.678Z,999.28
2022-09-05T06:43:08.674Z,999.28
2022-09-05T06:44:08.651Z,999.31
2022-09-05T06:45:27.396Z,999.32
2022-09-05T06:46:08.645Z,999.31
2022-09-05T06:47:30.229Z,999.34
2022-09-05T06:48:08.566Z,999.34
2022-09-05T06:49:30.091Z,999.30
2022-09-05T06:50:27.615Z,999.31
2022-09-05T06:51:09.073Z,999.32
2022-09-05T06:52:08.497Z,999.34
2022-09-05T06:53:19.833Z,999.31
2022-09-05T06:54:08.452Z,999.31
2022-09-05T06:55:08.441Z,999.31
2022-09-05T06:56:08.421Z,999.34
2022-09-05T06:57:08.392Z,999.33
2022-09-05T06:58:08.387Z,999.38
2022-09-05T06:59:09.933Z,999.42
2022-09-05T07:00:15.576Z,999.43
2022-09-05T07:01:08.812Z,999.46
2022-09-05T07:02:08.519Z,999.49
2022-09-05T07:03:08.309Z,999.46
2022-09-05T07:04:33.405Z,999.46
2022-09-05T07:05:37.406Z,999.46
2022-09-05T07:06:08.261Z,999.47
2022-09-05T07:07:08.215Z,999.51
2022-09-05T07:08:26.724Z,999.54
2022-09-05T07:09:08.525Z,999.58
2022-09-05T07:10:34.681Z,999.59
2022-09-05T07:11:16.013Z,999.57
2022-09-05T07:12:08.129Z,999.63
2022-09-05T07:13:08.108Z,999.63
2022-09-05T07:14:08.118Z,999.61
2022-09-05T07:15:08.702Z,999.60
2022-09-05T07:16:08.095Z,999.60
2022-09-05T07:17:08.065Z,999.61
2022-09-05T07:18:10.960Z,999.60
2022-09-05T07:19:08.010Z,999.60
2022-09-05T07:20:08.006Z,999.60
2022-09-05T07:21:17.849Z,999.59
2022-09-05T07:22:29.386Z,999.62
2022-09-05T07:24:06.563Z,999.61
2022-09-05T07:24:10.094Z,999.59
2022-09-05T07:25:08.752Z,999.62
2022-09-05T07:26:07.910Z,999.58
2022-09-05T07:27:09.022Z,999.61
2022-09-05T07:28:29.403Z,999.63
2022-09-05T07:29:09.745Z,999.60
2022-09-05T07:30:07.881Z,999.64
2022-09-05T07:31:07.949Z,999.63
2022-09-05T07:32:07.878Z,999.64
2022-09-05T07:33:07.794Z,999.64
2022-09-05T07:34:20.644Z,999.62
2022-09-05T07:35:07.800Z,999.65
2022-09-05T07:36:07.755Z,999.65
2022-09-05T07:37:14.915Z,999.65
2022-09-05T07:38:07.733Z,999.64
2022-09-05T07:39:27.624Z,999.67
2022-09-05T07:40:23.298Z,999.69
2022-09-05T07:41:07.725Z,999.70
2022-09-05T07:42:07.660Z,999.70
2022-09-05T07:43:09.544Z,999.71
2022-09-05T07:44:07.623Z,999.71
2022-09-05T07:45:07.611Z,999.72
2022-09-05T07:46:07.641Z,999.70
2022-09-05T07:47:07.588Z,999.69
2022-09-05T07:48:07.589Z,999.70
2022-09-05T07:49:07.557Z,999.70
2022-09-05T07:52:43.104Z,999.69
2022-09-05T07:56:49.196Z,999.68
2022-09-05T07:56:50.090Z,999.69
2022-09-05T07:57:01.604Z,999.70
2022-09-05T07:57:02.366Z,999.73
2022-09-05T07:57:04.918Z,999.72
2022-09-05T07:57:10.464Z,999.72
2022-09-05T07:58:07.432Z,999.72
2022-09-05T07:59:07.428Z,999.71
2022-09-05T08:00:07.419Z,999.75
2022-09-05T08:01:07.734Z,999.73
2022-09-05T08:02:07.383Z,999.73
2022-09-05T08:03:07.373Z,999.73
2022-09-05T08:04:07.361Z,999.73
2022-09-05T08:05:07.399Z,999.72
2022-09-05T08:06:07.341Z,999.72
2022-09-05T08:07:47.374Z,999.71
2022-09-05T08:08:07.310Z,999.73
2022-09-05T08:10:07.032Z,999.72
2022-09-05T08:10:09.714Z,999.70
2022-09-05T08:11:24.138Z,999.71
2022-09-05T08:12:09.607Z,999.70
2022-09-05T08:13:23.449Z,999.73
2022-09-05T08:14:44.033Z,999.75
2022-09-05T08:15:10.239Z,999.74
2022-09-05T08:16:10.509Z,999.75
2022-09-05T08:17:07.218Z,999.73
2022-09-05T08:18:07.199Z,999.72
2022-09-05T08:19:07.182Z,999.74
2022-09-05T08:20:08.888Z,999.74
2022-09-05T08:21:07.219Z,999.78
2022-09-05T08:22:07.150Z,999.80
2022-09-05T08:23:07.146Z,999.79
2022-09-05T08:24:12.975Z,999.81
2022-09-05T08:25:07.140Z,999.77
2022-09-05T08:26:07.114Z,999.77
2022-09-05T08:27:16.318Z,999.75
2022-09-05T08:28:07.087Z,999.74
2022-09-05T08:29:07.321Z,999.75
2022-09-05T08:30:26.154Z,999.71
2022-09-05T08:31:07.079Z,999.70
2022-09-05T08:32:07.090Z,999.73
2022-09-05T08:33:11.048Z,999.74
2022-09-05T08:34:07.033Z,999.70
2022-09-05T08:35:07.023Z,999.72
2022-09-05T08:36:07.017Z,999.73
2022-09-05T08:37:07.001Z,999.74
2022-09-05T08:38:06.992Z,999.72
2022-09-05T08:39:06.992Z,999.72
2022-09-05T08:40:10.523Z,999.70
2022-09-05T08:41:06.966Z,999.71
2022-09-05T08:42:06.957Z,999.66
2022-09-05T08:46:17.008Z,999.69
2022-09-05T08:46:37.465Z,999.69
2022-09-05T08:46:40.232Z,999.65
2022-09-05T08:46:47.411Z,999.67
2022-09-05T08:47:06.950Z,999.68
2022-09-05T08:48:06.955Z,999.63
2022-09-05T08:49:11.450Z,999.64
2022-09-05T08:50:06.888Z,999.67
2022-09-05T08:51:06.912Z,999.60
2022-09-05T08:52:06.859Z,999.60
2022-09-05T08:53:28.418Z,999.61
2022-09-05T08:54:06.842Z,999.54
2022-09-05T08:55:07.706Z,999.54
2022-09-05T08:56:06.839Z,999.49
2022-09-05T08:57:06.831Z,999.50
2022-09-05T08:58:06.823Z,999.46
2022-09-05T08:59:31.654Z,999.46
2022-09-05T09:00:19.129Z,999.47
2022-09-05T09:01:06.839Z,999.47
2022-09-05T09:02:46.125Z,999.45
2022-09-05T09:03:06.866Z,999.45
2022-09-05T09:04:11.431Z,999.45
2022-09-05T09:05:06.745Z,999.47
2022-09-05T09:06:14.241Z,999.45
2022-09-05T09:07:47.183Z,999.45
2022-09-05T09:08:06.727Z,999.45
2022-09-05T09:09:06.714Z,999.46
2022-09-05T09:10:06.702Z,999.45
2022-09-05T09:11:06.701Z,999.44
2022-09-05T09:12:06.686Z,999.40
2022-09-05T09:13:06.686Z,999.43
2022-09-05T09:14:06.674Z,999.45
2022-09-05T09:15:06.738Z,999.37
2022-09-05T09:16:06.840Z,999.39
2022-09-05T09:17:06.718Z,999.39
2022-09-05T09:18:06.655Z,999.39
2022-09-05T09:19:06.634Z,999.38
2022-09-05T09:20:06.638Z,999.45
2022-09-05T09:21:06.625Z,999.41
2022-09-05T09:22:06.599Z,999.38
2022-09-05T09:23:06.715Z,999.39
2022-09-05T09:24:06.584Z,999.36
2022-09-05T09:25:14.263Z,999.37
2022-09-05T09:26:06.561Z,999.34
2022-09-05T09:27:06.569Z,999.37
2022-09-05T09:28:45.126Z,999.34
2022-09-05T09:29:06.548Z,999.32
2022-09-05T09:30:06.530Z,999.30
2022-09-05T09:31:06.552Z,999.35
2022-09-05T09:32:06.509Z,999.34
2022-09-05T09:33:06.532Z,999.32
2022-09-05T09:34:06.553Z,999.29
2022-09-05T09:35:06.483Z,999.28
2022-09-05T09:36:08.217Z,999.31
2022-09-05T09:37:06.479Z,999.28
2022-09-05T09:38:06.476Z,999.31
2022-09-05T09:39:21.521Z,999.32
2022-09-05T09:40:06.472Z,999.30
2022-09-05T09:41:06.428Z,999.29
2022-09-05T09:42:06.431Z,999.30
2022-09-05T09:43:07.207Z,999.33
2022-09-05T09:44:06.432Z,999.29
2022-09-05T09:45:27.722Z,999.29
2022-09-05T09:46:06.425Z,999.23
2022-09-05T09:47:06.385Z,999.26
2022-09-05T09:48:06.371Z,999.27
2022-09-05T09:49:22.677Z,999.30
2022-09-05T09:50:06.358Z,999.30
2022-09-05T09:51:06.344Z,999.23
2022-09-05T09:52:06.333Z,999.28
2022-09-05T09:53:06.331Z,999.26
2022-09-05T09:54:06.318Z,999.25
2022-09-05T09:55:06.311Z,999.23
2022-09-05T09:56:06.929Z,999.23
2022-09-05T09:57:06.298Z,999.18
2022-09-05T09:58:06.295Z,999.24
2022-09-05T09:59:06.275Z,999.19
2022-09-05T10:00:06.274Z,999.22
2022-09-05T10:01:21.516Z,999.18
2022-09-05T10:02:15.630Z,999.23
2022-09-05T10:05:25.421Z,999.17
2022-09-05T10:10:33.406Z,999.23
2022-09-05T10:10:35.975Z,999.22
2022-09-05T10:10:45.151Z,999.21
2022-09-05T10:10:46.908Z,999.13
2022-09-05T10:10:49.907Z,999.17
2022-09-05T10:10:54.452Z,999.19
2022-09-05T10:11:09.533Z,999.22
2022-09-05T10:12:06.892Z,999.10
2022-09-05T10:13:08.006Z,999.10
2022-09-05T10:14:06.152Z,999.11
2022-09-05T10:15:30.466Z,999.13
2022-09-05T10:16:07.507Z,999.14
2022-09-05T10:17:06.130Z,999.09
2022-09-05T10:18:06.117Z,999.08
2022-09-05T10:19:06.117Z,999.09
2022-09-05T10:20:10.141Z,999.12
2022-09-05T10:21:15.313Z,999.08
2022-09-05T10:23:06.067Z,999.11
2022-09-05T10:24:06.074Z,999.15
2022-09-05T10:25:18.580Z,999.10
2022-09-05T10:26:06.054Z,999.09
2022-09-05T10:27:06.026Z,999.03
2022-09-05T10:28:06.043Z,999.07
2022-09-05T10:29:36.866Z,999.05
2022-09-05T10:30:06.015Z,999.04
2022-09-05T10:33:17.002Z,999.05
2022-09-05T10:33:33.766Z,999.00
2022-09-05T10:35:08.326Z,998.98
2022-09-05T10:35:19.948Z,999.00
2022-09-05T10:35:21.133Z,998.99
2022-09-05T10:36:05.966Z,998.96
2022-09-05T10:37:05.932Z,998.96
2022-09-05T10:38:07.752Z,999.02
2022-09-05T10:39:05.914Z,999.00
2022-09-05T10:40:05.947Z,999.01
2022-09-05T10:41:21.360Z,998.97
2022-09-05T10:42:05.916Z,998.98
2022-09-05T10:43:05.878Z,998.94
2022-09-05T10:44:05.864Z,998.99
2022-09-05T10:45:05.883Z,999.00
2022-09-05T10:46:05.924Z,998.98
2022-09-05T10:47:05.872Z,998.96
2022-09-05T10:48:13.728Z,998.95
2022-09-05T10:49:05.832Z,998.95
2022-09-05T10:50:05.820Z,998.95
2022-09-05T10:51:05.826Z,998.95
2022-09-05T10:52:18.413Z,998.90
2022-09-05T10:53:05.795Z,998.89
2022-09-05T10:54:05.796Z,998.86
2022-09-05T10:55:14.091Z,998.85
2022-09-05T10:56:05.756Z,998.81
2022-09-05T10:57:05.754Z,998.84
2022-09-05T10:58:05.764Z,998.84
2022-09-05T11:02:16.194Z,998.81
2022-09-05T11:02:22.589Z,998.79
2022-09-05T11:02:24.099Z,998.80
2022-09-05T11:02:29.326Z,998.77
2022-09-05T11:03:05.771Z,998.75
2022-09-05T11:04:05.797Z,998.70
2022-09-05T11:05:05.756Z,998.72
2022-09-05T11:06:09.507Z,998.71
2022-09-05T11:07:05.669Z,998.69
2022-09-05T11:08:05.653Z,998.66
2022-09-05T11:09:05.654Z,998.70
2022-09-05T11:10:05.640Z,998.65
2022-09-05T11:11:05.626Z,998.68
2022-09-05T11:12:05.617Z,998.68
2022-09-05T11:13:05.615Z,998.70
2022-09-05T11:14:05.714Z,998.72
2022-09-05T11:15:05.631Z,998.72
2022-09-05T11:16:06.830Z,998.68
2022-09-05T11:17:05.619Z,998.66
2022-09-05T11:18:05.582Z,998.61
2022-09-05T11:19:05.595Z,998.64
2022-09-05T11:20:05.569Z,998.64
2022-09-05T11:21:05.550Z,998.65
2022-09-05T11:22:23.833Z,998.61
2022-09-05T11:23:05.538Z,998.63
2022-09-05T11:24:05.532Z,998.63
2022-09-05T11:25:05.540Z,998.62
2022-09-05T11:26:05.583Z,998.58
2022-09-05T11:27:23.672Z,998.58
2022-09-05T11:28:05.560Z,998.59
2022-09-05T11:29:05.536Z,998.58
2022-09-05T11:30:05.513Z,998.57
2022-09-05T11:31:05.525Z,998.59
2022-09-05T11:34:02.836Z,998.60
2022-09-05T11:36:56.500Z,998.54
2022-09-05T11:39:26.298Z,998.55
2022-09-05T11:39:57.724Z,998.53
2022-09-05T11:39:58.480Z,998.53
2022-09-05T11:40:02.600Z,998.57
2022-09-05T11:40:05.509Z,998.57
2022-09-05T11:40:08.558Z,998.59
2022-09-05T11:40:30.123Z,998.62
2022-09-05T11:41:11.852Z,998.59
2022-09-05T11:42:05.513Z,998.59
2022-09-05T11:43:05.418Z,998.55
2022-09-05T11:44:25.758Z,998.60
2022-09-05T11:45:05.411Z,998.58
2022-09-05T11:46:05.484Z,998.54
2022-09-05T11:47:14.277Z,998.56
2022-09-05T11:48:05.421Z,998.58
2022-09-05T11:49:05.392Z,998.58
2022-09-05T11:50:08.860Z,998.60
2022-09-05T11:51:05.402Z,998.55
2022-09-05T11:52:05.396Z,998.54
2022-09-05T11:53:05.421Z,998.54
2022-09-05T11:54:05.416Z,998.57
2022-09-05T11:55:05.382Z,998.54
2022-09-05T11:56:05.388Z,998.53
2022-09-05T11:57:33.920Z,998.48
2022-09-05T11:58:19.937Z,998.47
2022-09-05T11:59:05.388Z,998.50
2022-09-05T12:00:09.277Z,998.47
2022-09-05T12:01:41.961Z,998.44
2022-09-05T12:02:17.076Z,998.42
2022-09-05T12:03:05.380Z,998.47
2022-09-05T12:04:08.539Z,998.48
2022-09-05T12:05:50.018Z,998.47
2022-09-05T12:06:05.413Z,998.46
2022-09-05T12:07:15.562Z,998.46
2022-09-05T12:08:05.448Z,998.50
2022-09-05T12:09:06.252Z,998.47
2022-09-05T12:10:05.398Z,998.45
2022-09-05T12:11:05.386Z,998.41
2022-09-05T12:12:05.369Z,998.35
2022-09-05T12:13:05.366Z,998.35
2022-09-05T12:14:17.057Z,998.36
2022-09-05T12:15:07.254Z,998.31
2022-09-05T12:16:08.424Z,998.30
2022-09-05T12:17:06.533Z,998.29
2022-09-05T12:19:19.367Z,998.27
2022-09-05T12:20:05.398Z,998.25
2022-09-05T12:22:09.832Z,998.26
2022-09-05T12:23:05.411Z,998.26
2022-09-05T12:25:23.591Z,998.22
2022-09-05T12:26:02.865Z,998.24
2022-09-05T12:27:38.656Z,998.23
2022-09-05T12:27:40.544Z,998.24
2022-09-05T12:29:26.087Z,998.18
2022-09-05T12:29:32.676Z,998.12
2022-09-05T12:30:05.717Z,998.13
2022-09-05T12:32:19.667Z,998.14
2022-09-05T12:32:34.408Z,998.16
2022-09-05T12:36:01.227Z,998.19